createdAt,value
2023-04-20T00:00:12.053Z,13.60
2023-04-20T00:00:24.145Z,13.60
2023-04-20T00:00:36.334Z,13.50
2023-04-20T00:00:48.435Z,13.60
2023-04-20T00:01:01.428Z,13.60
2023-04-20T00:01:13.656Z,13.50
2023-04-20T00:01:25.631Z,13.50
2023-04-20T00:01:37.858Z,13.60
2023-04-20T00:01:49.768Z,13.60
2023-04-20T00:02:03.150Z,13.60
2023-04-20T00:02:15.715Z,13.50
2023-04-20T00:02:27.822Z,13.60
2023-04-20T00:02:40.130Z,13.60
2023-04-20T00:02:53.302Z,13.60
2023-04-20T00:03:05.345Z,13.50
2023-04-20T00:03:21.451Z,13.50
2023-04-20T00:03:35.540Z,13.50
2023-04-20T00:03:47.659Z,13.50
2023-04-20T00:03:59.989Z,13.50
2023-04-20T00:04:12.120Z,13.50
2023-04-20T00:04:23.951Z,13.50
2023-04-20T00:04:36.701Z,13.50
2023-04-20T00:04:48.665Z,13.50
2023-04-20T00:05:00.627Z,13.50
2023-04-20T00:05:12.859Z,13.50
2023-04-20T00:05:24.945Z,13.40
2023-04-20T00:05:37.883Z,13.50
2023-04-20T00:05:49.900Z,13.40
2023-04-20T00:06:02.148Z,13.40
2023-04-20T00:06:14.156Z,13.40
2023-04-20T00:06:29.828Z,13.40
2023-04-20T00:06:44.023Z,13.40
2023-04-20T00:06:57.221Z,13.50
2023-04-20T00:07:09.298Z,13.50
2023-04-20T00:07:21.660Z,13.50
2023-04-20T00:07:33.738Z,13.50
2023-04-20T00:07:45.681Z,13.40
2023-04-20T00:07:58.778Z,13.40
2023-04-20T00:08:10.721Z,13.40
2023-04-20T00:08:22.620Z,13.40
2023-04-20T00:08:34.549Z,13.40
2023-04-20T00:08:46.620Z,13.40
2023-04-20T00:08:59.002Z,13.40
2023-04-20T00:09:12.673Z,13.40
2023-04-20T00:09:24.563Z,13.40
2023-04-20T00:09:36.407Z,13.40
2023-04-20T00:09:48.285Z,13.40
2023-04-20T00:10:00.460Z,13.40
2023-04-20T00:10:12.515Z,13.40
2023-04-20T00:10:24.486Z,13.40
2023-04-20T00:10:36.311Z,13.40
2023-04-20T00:10:48.200Z,13.40
2023-04-20T00:11:00.033Z,13.40
2023-04-20T00:11:11.855Z,13.40
2023-04-20T00:11:23.807Z,13.40
2023-04-20T00:11:35.729Z,13.40
2023-04-20T00:11:47.577Z,13.40
2023-04-20T00:11:59.375Z,13.40
2023-04-20T00:12:11.288Z,13.40
2023-04-20T00:12:23.346Z,13.40
2023-04-20T00:12:35.800Z,13.40
2023-04-20T00:12:47.662Z,13.40
2023-04-20T00:12:59.663Z,13.40
2023-04-20T00:13:11.653Z,13.40
2023-04-20T00:13:23.613Z,13.40
2023-04-20T00:13:35.547Z,13.40
2023-04-20T00:13:47.607Z,13.40
2023-04-20T00:13:59.417Z,13.40
2023-04-20T00:14:11.235Z,13.40
2023-04-20T00:14:23.117Z,13.40
2023-04-20T00:14:34.979Z,13.40
2023-04-20T00:14:47.042Z,13.40
2023-04-20T00:14:58.868Z,13.40
2023-04-20T00:15:10.941Z,13.40
2023-04-20T00:15:22.852Z,13.40
2023-04-20T00:15:34.673Z,13.40
2023-04-20T00:15:46.633Z,13.40
2023-04-20T00:15:58.489Z,13.40
2023-04-20T00:16:10.725Z,13.40
2023-04-20T00:16:22.888Z,13.50
2023-04-20T00:16:34.787Z,13.40
2023-04-20T00:16:46.808Z,13.40
2023-04-20T00:16:58.780Z,13.40
2023-04-20T00:17:10.997Z,13.50
2023-04-20T00:17:23.042Z,13.40
2023-04-20T00:17:34.940Z,13.40
2023-04-20T00:17:48.753Z,13.40
2023-04-20T00:18:01.145Z,13.40
2023-04-20T00:18:13.260Z,13.40
2023-04-20T00:18:25.046Z,13.40
2023-04-20T00:18:36.933Z,13.40
2023-04-20T00:18:48.994Z,13.40
2023-04-20T00:19:01.163Z,13.40
2023-04-20T00:19:12.970Z,13.40
2023-04-20T00:19:26.324Z,13.40
2023-04-20T00:19:38.310Z,13.40
2023-04-20T00:19:50.203Z,13.40
2023-04-20T00:20:02.181Z,13.50
2023-04-20T00:20:15.432Z,13.40
2023-04-20T00:20:27.867Z,13.40
2023-04-20T00:20:40.270Z,13.40
2023-04-20T00:20:52.096Z,13.40
2023-04-20T00:21:04.105Z,13.40
2023-04-20T00:21:15.985Z,13.40
2023-04-20T00:21:27.862Z,13.40
2023-04-20T00:21:39.807Z,13.40
2023-04-20T00:21:53.047Z,13.40
2023-04-20T00:22:05.235Z,13.40
2023-04-20T00:22:17.206Z,13.40
2023-04-20T00:22:30.921Z,13.40
2023-04-20T00:22:43.281Z,13.40
2023-04-20T00:22:55.274Z,13.40
2023-04-20T00:23:07.347Z,13.50
2023-04-20T00:23:19.185Z,13.40
2023-04-20T00:23:30.990Z,13.40
2023-04-20T00:23:42.899Z,13.40
2023-04-20T00:23:54.696Z,13.40
2023-04-20T00:24:07.260Z,13.50
2023-04-20T00:24:19.386Z,13.40
2023-04-20T00:24:31.482Z,13.40
2023-04-20T00:24:43.433Z,13.40
2023-04-20T00:24:55.381Z,13.40
2023-04-20T00:25:07.702Z,13.40
2023-04-20T00:25:20.828Z,13.40
2023-04-20T00:25:32.845Z,13.40
2023-04-20T00:25:45.050Z,13.40
2023-04-20T00:25:56.911Z,13.40
2023-04-20T00:26:08.785Z,13.40
2023-04-20T00:26:21.452Z,13.40
2023-04-20T00:26:33.957Z,13.40
2023-04-20T00:26:45.959Z,13.40
2023-04-20T00:26:57.869Z,13.40
2023-04-20T00:27:09.668Z,13.40
2023-04-20T00:27:21.567Z,13.40
2023-04-20T00:27:33.754Z,13.40
2023-04-20T00:27:45.708Z,13.40
2023-04-20T00:27:57.771Z,13.40
2023-04-20T00:28:09.775Z,13.40
2023-04-20T00:28:21.638Z,13.40
2023-04-20T00:28:33.588Z,13.40
2023-04-20T00:28:45.626Z,13.40
2023-04-20T00:28:57.590Z,13.40
2023-04-20T00:29:09.425Z,13.40
2023-04-20T00:29:21.256Z,13.40
2023-04-20T00:29:33.376Z,13.40
2023-04-20T00:29:45.196Z,13.40
2023-04-20T00:29:57.002Z,13.40
2023-04-20T00:30:10.443Z,13.40
2023-04-20T00:30:22.636Z,13.40
2023-04-20T00:30:34.495Z,13.40
2023-04-20T00:30:46.444Z,13.40
2023-04-20T00:30:58.487Z,13.40
2023-04-20T00:31:10.533Z,13.40
2023-04-20T00:31:22.477Z,13.40
2023-04-20T00:31:34.305Z,13.40
2023-04-20T00:31:46.228Z,13.40
2023-04-20T00:31:58.163Z,13.40
2023-04-20T00:32:10.043Z,13.40
2023-04-20T00:32:21.863Z,13.40
2023-04-20T00:32:33.789Z,13.40
2023-04-20T00:32:45.977Z,13.40
2023-04-20T00:32:57.888Z,13.30
2023-04-20T00:33:09.737Z,13.40
2023-04-20T00:33:21.622Z,13.30
2023-04-20T00:33:33.486Z,13.30
2023-04-20T00:33:45.339Z,13.30
2023-04-20T00:33:57.219Z,13.40
2023-04-20T00:34:09.051Z,13.40
2023-04-20T00:34:21.348Z,13.30
2023-04-20T00:34:33.222Z,13.30
2023-04-20T00:34:45.306Z,13.30
2023-04-20T00:34:57.152Z,13.30
2023-04-20T00:35:09.432Z,13.30
2023-04-20T00:35:21.535Z,13.40
2023-04-20T00:35:33.402Z,13.30
2023-04-20T00:35:45.553Z,13.30
2023-04-20T00:35:57.421Z,13.40
2023-04-20T00:36:09.579Z,13.30
2023-04-20T00:36:22.011Z,13.30
2023-04-20T00:36:33.979Z,13.40
2023-04-20T00:36:45.749Z,13.30
2023-04-20T00:36:57.934Z,13.40
2023-04-20T00:37:09.811Z,13.40
2023-04-20T00:37:21.626Z,13.30
2023-04-20T00:37:33.492Z,13.30
2023-04-20T00:37:45.700Z,13.30
2023-04-20T00:37:57.525Z,13.30
2023-04-20T00:38:09.361Z,13.30
2023-04-20T00:38:21.198Z,13.30
2023-04-20T00:38:32.959Z,13.30
2023-04-20T00:38:52.582Z,13.30
2023-04-20T00:39:08.794Z,13.30
2023-04-20T00:39:28.847Z,13.30
2023-04-20T00:40:07.633Z,13.30
2023-04-20T00:40:19.713Z,13.30
2023-04-20T00:40:31.567Z,13.30
2023-04-20T00:40:44.972Z,13.30
2023-04-20T00:40:56.758Z,13.30
2023-04-20T00:41:08.752Z,13.30
2023-04-20T00:41:21.400Z,13.30
2023-04-20T00:41:33.232Z,13.30
2023-04-20T00:41:45.161Z,13.30
2023-04-20T00:42:05.239Z,13.30
2023-04-20T00:42:20.959Z,13.30
2023-04-20T00:42:32.918Z,13.30
2023-04-20T00:42:44.892Z,13.30
2023-04-20T00:42:56.734Z,13.30
2023-04-20T00:43:12.149Z,13.30
2023-04-20T00:43:24.147Z,13.30
2023-04-20T00:43:36.149Z,13.30
2023-04-20T00:43:52.488Z,13.30
2023-04-20T00:44:04.443Z,13.30
2023-04-20T00:44:16.236Z,13.30
2023-04-20T00:44:28.083Z,13.30
2023-04-20T00:44:39.877Z,13.30
2023-04-20T00:44:51.687Z,13.20
2023-04-20T00:45:03.988Z,13.20
2023-04-20T00:45:15.872Z,13.20
2023-04-20T00:45:27.705Z,13.20
2023-04-20T00:45:39.496Z,13.20
2023-04-20T00:45:54.450Z,13.20
2023-04-20T00:46:06.875Z,13.10
2023-04-20T00:46:19.738Z,13.20
2023-04-20T00:46:31.643Z,13.20
2023-04-20T00:46:43.599Z,13.10
2023-04-20T00:46:57.366Z,13.20
2023-04-20T00:47:09.254Z,13.20
2023-04-20T00:47:21.085Z,13.10
2023-04-20T00:47:33.071Z,13.20
2023-04-20T00:47:45.020Z,13.20
2023-04-20T00:47:56.907Z,13.20
2023-04-20T00:48:08.908Z,13.10
2023-04-20T00:48:21.690Z,13.10
2023-04-20T00:48:33.944Z,13.10
2023-04-20T00:48:45.860Z,13.10
2023-04-20T00:48:57.717Z,13.10
2023-04-20T00:49:09.691Z,13.10
2023-04-20T00:49:21.585Z,13.10
2023-04-20T00:49:33.406Z,13.10
2023-04-20T00:49:45.261Z,13.10
2023-04-20T00:49:57.063Z,13.10
2023-04-20T00:50:09.396Z,13.10
2023-04-20T00:50:21.302Z,13.10
2023-04-20T00:50:34.229Z,13.10
2023-04-20T00:50:46.150Z,13.10
2023-04-20T00:50:58.141Z,13.00
2023-04-20T00:51:09.905Z,13.00
2023-04-20T00:51:22.481Z,13.00
2023-04-20T00:51:34.777Z,13.00
2023-04-20T00:51:46.618Z,13.00
2023-04-20T00:51:58.818Z,13.00
2023-04-20T00:52:10.602Z,13.10
2023-04-20T00:52:22.462Z,13.00
2023-04-20T00:52:34.518Z,13.00
2023-04-20T00:52:46.371Z,13.10
2023-04-20T00:52:58.227Z,13.10
2023-04-20T00:53:10.173Z,13.10
2023-04-20T00:53:21.975Z,13.00
2023-04-20T00:53:33.829Z,13.00
2023-04-20T00:53:45.861Z,13.00
2023-04-20T00:53:57.716Z,13.00
2023-04-20T00:54:09.628Z,13.00
2023-04-20T00:54:21.532Z,13.00
2023-04-20T00:54:33.452Z,12.90
2023-04-20T00:54:45.262Z,13.00
2023-04-20T00:54:57.365Z,13.00
2023-04-20T00:55:11.584Z,13.00
2023-04-20T00:55:23.397Z,13.00
2023-04-20T00:55:35.981Z,13.00
2023-04-20T00:55:47.841Z,12.90
2023-04-20T00:55:59.692Z,12.90
2023-04-20T00:56:13.108Z,12.90
2023-04-20T00:56:25.074Z,12.90
2023-04-20T00:56:36.948Z,12.90
2023-04-20T00:56:49.117Z,12.90
2023-04-20T00:57:01.375Z,12.90
2023-04-20T00:57:16.742Z,12.90
2023-04-20T00:57:28.575Z,12.90
2023-04-20T00:57:40.449Z,12.90
2023-04-20T00:57:52.913Z,12.90
2023-04-20T00:58:04.939Z,12.90
2023-04-20T00:58:16.750Z,12.90
2023-04-20T00:58:28.541Z,12.90
2023-04-20T00:58:42.224Z,12.90
2023-04-20T00:58:53.984Z,12.90
2023-04-20T00:59:05.960Z,12.90
2023-04-20T00:59:18.045Z,12.90
2023-04-20T00:59:30.091Z,12.90
2023-04-20T00:59:41.941Z,12.90
2023-04-20T00:59:53.933Z,12.90
2023-04-20T01:00:07.388Z,12.90
2023-04-20T01:00:19.296Z,12.90
2023-04-20T01:00:31.960Z,12.90
2023-04-20T01:00:44.446Z,12.90
2023-04-20T01:00:56.423Z,12.90
2023-04-20T01:01:08.947Z,12.90
2023-04-20T01:01:21.043Z,12.90
2023-04-20T01:01:33.030Z,12.90
2023-04-20T01:01:45.175Z,12.90
2023-04-20T01:01:57.727Z,12.90
2023-04-20T01:02:10.163Z,12.90
2023-04-20T01:02:23.284Z,12.90
2023-04-20T01:02:35.451Z,12.90
2023-04-20T01:02:47.703Z,12.90
2023-04-20T01:02:59.988Z,12.90
2023-04-20T01:03:12.067Z,12.90
2023-04-20T01:03:24.150Z,12.90
2023-04-20T01:03:37.035Z,13.00
2023-04-20T01:03:49.309Z,13.00
2023-04-20T01:04:01.312Z,12.90
2023-04-20T01:04:13.411Z,12.90
2023-04-20T01:04:26.319Z,13.00
2023-04-20T01:04:38.635Z,13.00
2023-04-20T01:04:50.507Z,13.00
2023-04-20T01:05:02.496Z,13.00
2023-04-20T01:05:14.380Z,12.90
2023-04-20T01:05:27.021Z,12.90
2023-04-20T01:05:38.873Z,12.90
2023-04-20T01:05:50.710Z,12.90
2023-04-20T01:06:02.668Z,12.90
2023-04-20T01:06:14.758Z,12.90
2023-04-20T01:06:27.985Z,12.90
2023-04-20T01:06:39.812Z,12.90
2023-04-20T01:06:51.848Z,12.90
2023-04-20T01:07:03.787Z,12.80
2023-04-20T01:07:15.831Z,12.80
2023-04-20T01:07:27.781Z,12.80
2023-04-20T01:07:39.615Z,12.80
2023-04-20T01:07:51.727Z,12.80
2023-04-20T01:08:03.660Z,12.80
2023-04-20T01:08:15.505Z,12.70
2023-04-20T01:08:27.691Z,12.70
2023-04-20T01:08:47.128Z,12.70
2023-04-20T01:08:58.918Z,12.70
2023-04-20T01:09:10.872Z,12.70
2023-04-20T01:09:22.956Z,12.70
2023-04-20T01:09:37.305Z,12.70
2023-04-20T01:09:49.065Z,12.70
2023-04-20T01:10:01.050Z,12.70
2023-04-20T01:10:13.007Z,12.70
2023-04-20T01:10:24.894Z,12.70
2023-04-20T01:10:36.924Z,12.70
2023-04-20T01:10:48.808Z,12.60
2023-04-20T01:11:00.623Z,12.60
2023-04-20T01:11:12.444Z,12.60
2023-04-20T01:11:24.249Z,12.60
2023-04-20T01:11:36.504Z,12.60
2023-04-20T01:11:48.624Z,12.60
2023-04-20T01:12:01.628Z,12.60
2023-04-20T01:12:13.506Z,12.60
2023-04-20T01:12:25.770Z,12.60
2023-04-20T01:12:37.651Z,12.50
2023-04-20T01:12:49.544Z,12.50
2023-04-20T01:13:01.550Z,12.50
2023-04-20T01:13:13.355Z,12.50
2023-04-20T01:13:25.215Z,12.50
2023-04-20T01:13:38.663Z,12.50
2023-04-20T01:13:50.537Z,12.50
2023-04-20T01:14:02.546Z,12.50
2023-04-20T01:14:14.431Z,12.50
2023-04-20T01:14:26.738Z,12.50
2023-04-20T01:14:38.620Z,12.50
2023-04-20T01:14:50.657Z,12.50
2023-04-20T01:15:03.651Z,12.40
2023-04-20T01:15:15.817Z,12.40
2023-04-20T01:15:27.698Z,12.40
2023-04-20T01:15:39.568Z,12.40
2023-04-20T01:15:51.471Z,12.40
2023-04-20T01:16:03.998Z,12.40
2023-04-20T01:16:16.263Z,12.40
2023-04-20T01:16:28.280Z,12.40
2023-04-20T01:16:40.316Z,12.40
2023-04-20T01:16:52.129Z,12.40
2023-04-20T01:17:04.702Z,12.40
2023-04-20T01:17:17.896Z,12.40
2023-04-20T01:17:29.895Z,12.40
2023-04-20T01:17:42.185Z,12.40
2023-04-20T01:17:54.086Z,12.40
2023-04-20T01:18:06.144Z,12.40
2023-04-20T01:18:20.109Z,12.40
2023-04-20T01:18:44.934Z,12.40
2023-04-20T01:18:57.354Z,12.40
2023-04-20T01:19:09.195Z,12.40
2023-04-20T01:19:21.764Z,12.40
2023-04-20T01:19:33.818Z,12.40
2023-04-20T01:19:46.194Z,12.40
2023-04-20T01:20:00.192Z,12.40
2023-04-20T01:20:15.180Z,12.40
2023-04-20T01:20:27.128Z,12.40
2023-04-20T01:20:39.110Z,12.40
2023-04-20T01:20:50.986Z,12.40
2023-04-20T01:21:02.818Z,12.40
2023-04-20T01:21:16.440Z,12.30
2023-04-20T01:21:28.376Z,12.40
2023-04-20T01:21:41.008Z,12.30
2023-04-20T01:21:52.908Z,12.30
2023-04-20T01:22:04.787Z,12.30
2023-04-20T01:22:20.044Z,12.30
2023-04-20T01:22:31.948Z,12.30
2023-04-20T01:22:47.754Z,12.40
2023-04-20T01:22:59.525Z,12.30
2023-04-20T01:23:11.917Z,12.30
2023-04-20T01:23:23.903Z,12.30
2023-04-20T01:23:35.873Z,12.30
2023-04-20T01:23:48.171Z,12.30
2023-04-20T01:23:59.951Z,12.30
2023-04-20T01:24:11.780Z,12.30
2023-04-20T01:24:23.720Z,12.30
2023-04-20T01:24:35.684Z,12.40
2023-04-20T01:24:48.191Z,12.30
2023-04-20T01:25:00.260Z,12.30
2023-04-20T01:25:12.102Z,12.30
2023-04-20T01:25:24.057Z,12.30
2023-04-20T01:25:36.302Z,12.30
2023-04-20T01:25:48.530Z,12.20
2023-04-20T01:26:00.480Z,12.20
2023-04-20T01:26:14.374Z,12.30
2023-04-20T01:26:26.801Z,12.20
2023-04-20T01:26:38.629Z,12.20
2023-04-20T01:26:50.511Z,12.20
2023-04-20T01:27:02.702Z,12.20
2023-04-20T01:27:16.622Z,12.20
2023-04-20T01:27:28.546Z,12.30
2023-04-20T01:27:40.713Z,12.20
2023-04-20T01:27:52.695Z,12.20
2023-04-20T01:28:05.195Z,12.20
2023-04-20T01:28:17.516Z,12.20
2023-04-20T01:28:29.452Z,12.20
2023-04-20T01:28:41.304Z,12.20
2023-04-20T01:28:53.317Z,12.20
2023-04-20T01:29:05.185Z,12.20
2023-04-20T01:29:17.313Z,12.20
2023-04-20T01:29:30.210Z,12.20
2023-04-20T01:29:42.345Z,12.20
2023-04-20T01:29:54.368Z,12.20
2023-04-20T01:30:06.952Z,12.20
2023-04-20T01:30:19.178Z,12.20
2023-04-20T01:30:31.460Z,12.20
2023-04-20T01:30:43.513Z,12.20
2023-04-20T01:30:55.358Z,12.20
2023-04-20T01:31:07.544Z,12.20
2023-04-20T01:31:19.460Z,12.20
2023-04-20T01:31:31.773Z,12.20
2023-04-20T01:31:43.727Z,12.20
2023-04-20T01:31:55.897Z,12.20
2023-04-20T01:32:08.184Z,12.20
2023-04-20T01:32:20.259Z,12.20
2023-04-20T01:32:32.348Z,12.20
2023-04-20T01:32:44.614Z,12.20
2023-04-20T01:32:56.907Z,12.20
2023-04-20T01:33:08.939Z,12.20
2023-04-20T01:33:20.971Z,12.20
2023-04-20T01:33:33.398Z,12.20
2023-04-20T01:33:45.477Z,12.20
2023-04-20T01:33:57.344Z,12.20
2023-04-20T01:34:09.333Z,12.20
2023-04-20T01:34:21.816Z,12.20
2023-04-20T01:34:33.681Z,12.20
2023-04-20T01:34:45.502Z,12.20
2023-04-20T01:34:57.350Z,12.20
2023-04-20T01:35:09.861Z,12.20
2023-04-20T01:35:21.805Z,12.20
2023-04-20T01:35:33.703Z,12.20
2023-04-20T01:35:45.480Z,12.20
2023-04-20T01:35:57.318Z,12.20
2023-04-20T01:36:09.470Z,12.20
2023-04-20T01:36:21.489Z,12.20
2023-04-20T01:36:33.945Z,12.20
2023-04-20T01:36:45.926Z,12.20
2023-04-20T01:36:57.898Z,12.20
2023-04-20T01:37:09.882Z,12.20
2023-04-20T01:37:21.786Z,12.20
2023-04-20T01:37:33.885Z,12.20
2023-04-20T01:37:45.919Z,12.20
2023-04-20T01:37:57.774Z,12.20
2023-04-20T01:38:09.961Z,12.20
2023-04-20T01:38:22.314Z,12.20
2023-04-20T01:38:34.914Z,12.20
2023-04-20T01:38:47.858Z,12.20
2023-04-20T01:39:00.185Z,12.20
2023-04-20T01:39:12.111Z,12.10
2023-04-20T01:39:23.984Z,12.20
2023-04-20T01:39:37.095Z,12.10
2023-04-20T01:39:48.958Z,12.10
2023-04-20T01:40:00.982Z,12.10
2023-04-20T01:40:13.392Z,12.10
2023-04-20T01:40:25.165Z,12.10
2023-04-20T01:40:37.040Z,12.10
2023-04-20T01:40:49.101Z,12.10
2023-04-20T01:41:02.076Z,12.10
2023-04-20T01:41:14.445Z,12.10
2023-04-20T01:41:27.089Z,12.10
2023-04-20T01:41:39.498Z,12.10
2023-04-20T01:41:51.624Z,12.10
2023-04-20T01:42:03.752Z,12.10
2023-04-20T01:42:15.682Z,12.10
2023-04-20T01:42:27.512Z,12.10
2023-04-20T01:42:39.316Z,12.10
2023-04-20T01:42:51.213Z,12.10
2023-04-20T01:43:03.157Z,12.10
2023-04-20T01:43:15.455Z,12.10
2023-04-20T01:43:27.348Z,12.10
2023-04-20T01:43:39.492Z,12.10
2023-04-20T01:43:51.377Z,12.10
2023-04-20T01:44:03.148Z,12.10
2023-04-20T01:44:15.008Z,12.10
2023-04-20T01:44:26.961Z,12.10
2023-04-20T01:44:39.266Z,12.10
2023-04-20T01:44:51.134Z,12.10
2023-04-20T01:45:04.337Z,12.10
2023-04-20T01:45:16.456Z,12.00
2023-04-20T01:45:28.232Z,12.00
2023-04-20T01:45:40.059Z,12.00
2023-04-20T01:45:51.907Z,12.00
2023-04-20T01:46:04.098Z,12.00
2023-04-20T01:46:16.007Z,12.00
2023-04-20T01:46:27.808Z,12.00
2023-04-20T01:46:40.222Z,12.00
2023-04-20T01:46:52.093Z,12.00
2023-04-20T01:47:04.170Z,12.00
2023-04-20T01:47:16.084Z,12.00
2023-04-20T01:47:29.198Z,12.00
2023-04-20T01:47:41.106Z,12.00
2023-04-20T01:47:53.038Z,12.00
2023-04-20T01:48:05.141Z,12.00
2023-04-20T01:48:17.051Z,11.90
2023-04-20T01:48:29.100Z,11.90
2023-04-20T01:48:41.005Z,11.90
2023-04-20T01:48:52.942Z,11.90
2023-04-20T01:49:05.152Z,11.90
2023-04-20T01:49:17.120Z,12.00
2023-04-20T01:49:29.133Z,11.90
2023-04-20T01:49:41.115Z,11.90
2023-04-20T01:49:52.964Z,11.90
2023-04-20T01:50:05.048Z,12.00
2023-04-20T01:50:17.004Z,12.00
2023-04-20T01:50:28.915Z,12.00
2023-04-20T01:50:40.991Z,12.00
2023-04-20T01:50:53.044Z,12.00
2023-04-20T01:51:05.134Z,12.00
2023-04-20T01:51:16.951Z,12.00
2023-04-20T01:51:29.523Z,11.90
2023-04-20T01:51:41.538Z,12.00
2023-04-20T01:51:53.502Z,12.00
2023-04-20T01:52:05.655Z,12.00
2023-04-20T01:52:17.474Z,12.00
2023-04-20T01:52:29.339Z,12.00
2023-04-20T01:52:41.230Z,12.00
2023-04-20T01:52:53.226Z,12.00
2023-04-20T01:53:05.281Z,12.00
2023-04-20T01:53:17.276Z,12.00
2023-04-20T01:53:29.356Z,12.00
2023-04-20T01:53:41.182Z,12.00
2023-04-20T01:53:53.043Z,12.00
2023-04-20T01:54:04.889Z,12.00
2023-04-20T01:54:16.846Z,12.00
2023-04-20T01:54:28.841Z,12.00
2023-04-20T01:54:40.767Z,12.00
2023-04-20T01:54:52.719Z,12.00
2023-04-20T01:55:05.102Z,12.00
2023-04-20T01:55:28.941Z,11.90
2023-04-20T01:55:41.265Z,11.90
2023-04-20T01:55:53.137Z,11.90
2023-04-20T01:56:05.181Z,12.00
2023-04-20T01:56:17.075Z,12.00
2023-04-20T01:56:28.878Z,11.90
2023-04-20T01:56:40.767Z,12.00
2023-04-20T01:56:52.578Z,11.90
2023-04-20T01:57:04.491Z,12.00
2023-04-20T01:57:16.630Z,12.00
2023-04-20T01:57:28.396Z,11.90
2023-04-20T01:57:40.397Z,11.90
2023-04-20T01:57:52.324Z,11.90
2023-04-20T01:58:04.218Z,11.90
2023-04-20T01:58:16.112Z,11.90
2023-04-20T01:58:28.068Z,11.90
2023-04-20T01:58:39.880Z,11.90
2023-04-20T01:58:51.741Z,11.90
2023-04-20T01:59:03.628Z,11.90
2023-04-20T01:59:16.170Z,11.90
2023-04-20T01:59:28.199Z,11.90
2023-04-20T01:59:40.633Z,11.90
2023-04-20T01:59:52.527Z,11.90
2023-04-20T02:00:04.892Z,11.90
2023-04-20T02:00:17.015Z,11.90
2023-04-20T02:00:29.146Z,11.90
2023-04-20T02:00:41.093Z,11.90
2023-04-20T02:00:53.012Z,11.90
2023-04-20T02:01:05.121Z,11.90
2023-04-20T02:01:17.272Z,11.90
2023-04-20T02:01:29.215Z,11.90
2023-04-20T02:01:41.426Z,11.90
2023-04-20T02:01:53.504Z,11.90
2023-04-20T02:02:05.412Z,11.80
2023-04-20T02:02:17.514Z,11.80
2023-04-20T02:02:29.658Z,11.80
2023-04-20T02:02:41.962Z,11.80
2023-04-20T02:02:54.037Z,11.80
2023-04-20T02:03:06.722Z,11.80
2023-04-20T02:03:18.861Z,11.80
2023-04-20T02:03:31.362Z,11.80
2023-04-20T02:03:43.548Z,11.80
2023-04-20T02:03:55.765Z,11.80
2023-04-20T02:04:07.782Z,11.80
2023-04-20T02:04:20.714Z,11.80
2023-04-20T02:04:32.710Z,11.90
2023-04-20T02:04:44.762Z,11.90
2023-04-20T02:04:56.650Z,11.90
2023-04-20T02:05:09.040Z,11.80
2023-04-20T02:05:21.326Z,11.90
2023-04-20T02:05:33.278Z,11.90
2023-04-20T02:05:45.266Z,11.90
2023-04-20T02:05:57.240Z,11.80
2023-04-20T02:06:09.070Z,11.80
2023-04-20T02:06:20.919Z,11.80
2023-04-20T02:06:33.329Z,11.80
2023-04-20T02:06:45.481Z,11.80
2023-04-20T02:06:57.543Z,11.80
2023-04-20T02:07:09.419Z,11.80
2023-04-20T02:07:21.556Z,11.80
2023-04-20T02:07:33.507Z,11.80
2023-04-20T02:07:45.805Z,11.80
2023-04-20T02:07:57.951Z,11.80
2023-04-20T02:08:09.986Z,11.90
2023-04-20T02:08:22.182Z,11.90
2023-04-20T02:08:33.960Z,11.80
2023-04-20T02:08:46.047Z,11.90
2023-04-20T02:08:57.969Z,11.80
2023-04-20T02:09:09.960Z,11.90
2023-04-20T02:09:21.788Z,11.90
2023-04-20T02:09:33.659Z,11.90
2023-04-20T02:09:45.717Z,11.90
2023-04-20T02:09:57.717Z,11.90
2023-04-20T02:10:10.114Z,11.90
2023-04-20T02:10:22.062Z,11.90
2023-04-20T02:10:34.023Z,11.80
2023-04-20T02:10:46.090Z,11.90
2023-04-20T02:10:57.961Z,11.90
2023-04-20T02:11:09.800Z,11.90
2023-04-20T02:11:22.841Z,11.80
2023-04-20T02:11:34.813Z,11.80
2023-04-20T02:11:46.616Z,11.80
2023-04-20T02:11:58.447Z,11.80
2023-04-20T02:12:10.348Z,11.90
2023-04-20T02:12:22.182Z,11.90
2023-04-20T02:12:34.012Z,11.90
2023-04-20T02:12:46.195Z,11.90
2023-04-20T02:12:58.074Z,11.90
2023-04-20T02:13:10.121Z,11.90
2023-04-20T02:13:21.990Z,11.90
2023-04-20T02:13:34.004Z,11.90
2023-04-20T02:13:45.983Z,11.90
2023-04-20T02:13:58.054Z,11.90
2023-04-20T02:14:10.118Z,11.90
2023-04-20T02:14:22.120Z,11.90
2023-04-20T02:14:34.368Z,11.90
2023-04-20T02:14:46.166Z,11.90
2023-04-20T02:14:57.993Z,11.90
2023-04-20T02:15:10.395Z,11.90
2023-04-20T02:15:22.354Z,11.90
2023-04-20T02:15:34.176Z,11.90
2023-04-20T02:15:45.981Z,11.90
2023-04-20T02:15:57.777Z,11.90
2023-04-20T02:16:09.702Z,11.90
2023-04-20T02:16:23.549Z,11.90
2023-04-20T02:16:35.626Z,11.90
2023-04-20T02:16:47.739Z,11.90
2023-04-20T02:17:01.027Z,11.90
2023-04-20T02:17:13.994Z,11.90
2023-04-20T02:17:26.336Z,11.90
2023-04-20T02:17:38.189Z,11.80
2023-04-20T02:17:52.549Z,11.90
2023-04-20T02:18:04.907Z,11.90
2023-04-20T02:18:16.788Z,11.90
2023-04-20T02:18:30.526Z,11.90
2023-04-20T02:18:43.042Z,11.90
2023-04-20T02:18:55.547Z,11.90
2023-04-20T02:19:07.380Z,11.90
2023-04-20T02:19:19.557Z,11.90
2023-04-20T02:19:31.721Z,11.90
2023-04-20T02:19:43.781Z,11.90
2023-04-20T02:19:55.765Z,11.90
2023-04-20T02:20:09.423Z,11.90
2023-04-20T02:20:21.280Z,11.80
2023-04-20T02:20:33.158Z,11.80
2023-04-20T02:20:45.441Z,11.80
2023-04-20T02:20:57.748Z,11.80
2023-04-20T02:21:09.581Z,11.80
2023-04-20T02:21:21.560Z,11.80
2023-04-20T02:21:33.435Z,11.80
2023-04-20T02:21:45.282Z,11.80
2023-04-20T02:21:57.097Z,11.80
2023-04-20T02:22:10.977Z,11.80
2023-04-20T02:22:22.828Z,11.80
2023-04-20T02:22:35.231Z,11.80
2023-04-20T02:22:47.103Z,11.80
2023-04-20T02:22:59.028Z,11.80
2023-04-20T02:23:11.210Z,11.70
2023-04-20T02:23:23.058Z,11.70
2023-04-20T02:23:35.268Z,11.70
2023-04-20T02:23:47.055Z,11.70
2023-04-20T02:23:58.862Z,11.70
2023-04-20T02:24:10.756Z,11.70
2023-04-20T02:24:22.568Z,11.70
2023-04-20T02:24:34.416Z,11.70
2023-04-20T02:24:46.253Z,11.70
2023-04-20T02:24:58.128Z,11.70
2023-04-20T02:25:10.542Z,11.70
2023-04-20T02:25:22.356Z,11.70
2023-04-20T02:25:34.205Z,11.70
2023-04-20T02:25:46.063Z,11.70
2023-04-20T02:25:57.874Z,11.70
2023-04-20T02:26:09.650Z,11.60
2023-04-20T02:26:21.370Z,11.60
2023-04-20T02:26:33.177Z,11.60
2023-04-20T02:26:44.991Z,11.60
2023-04-20T02:26:57.250Z,11.60
2023-04-20T02:27:09.629Z,11.60
2023-04-20T02:27:21.576Z,11.60
2023-04-20T02:27:33.348Z,11.60
2023-04-20T02:27:45.164Z,11.60
2023-04-20T02:27:57.136Z,11.60
2023-04-20T02:28:08.959Z,11.60
2023-04-20T02:28:22.380Z,11.60
2023-04-20T02:28:34.413Z,11.60
2023-04-20T02:28:46.735Z,11.60
2023-04-20T02:28:58.553Z,11.60
2023-04-20T02:29:10.415Z,11.60
2023-04-20T02:29:22.294Z,11.50
2023-04-20T02:29:34.293Z,11.50
2023-04-20T02:29:46.311Z,11.50
2023-04-20T02:29:58.622Z,11.50
2023-04-20T02:30:10.907Z,11.50
2023-04-20T02:30:22.791Z,11.50
2023-04-20T02:30:34.555Z,11.50
2023-04-20T02:30:46.366Z,11.50
2023-04-20T02:30:58.214Z,11.50
2023-04-20T02:31:10.120Z,11.50
2023-04-20T02:31:22.026Z,11.50
2023-04-20T02:31:34.405Z,11.50
2023-04-20T02:31:47.036Z,11.50
2023-04-20T02:31:59.081Z,11.50
2023-04-20T02:32:10.839Z,11.50
2023-04-20T02:32:22.731Z,11.50
2023-04-20T02:32:35.406Z,11.50
2023-04-20T02:32:47.407Z,11.50
2023-04-20T02:32:59.590Z,11.50
2023-04-20T02:33:11.578Z,11.50
2023-04-20T02:33:23.697Z,11.40
2023-04-20T02:33:35.473Z,11.40
2023-04-20T02:33:47.931Z,11.40
2023-04-20T02:33:59.830Z,11.40
2023-04-20T02:34:11.636Z,11.40
2023-04-20T02:34:24.425Z,11.40
2023-04-20T02:34:36.268Z,11.40
2023-04-20T02:34:48.053Z,11.40
2023-04-20T02:34:59.888Z,11.40
2023-04-20T02:35:12.592Z,11.40
2023-04-20T02:35:24.618Z,11.40
2023-04-20T02:35:36.520Z,11.40
2023-04-20T02:35:48.545Z,11.40
2023-04-20T02:36:00.988Z,11.40
2023-04-20T02:36:13.050Z,11.40
2023-04-20T02:36:25.029Z,11.40
2023-04-20T02:36:36.903Z,11.30
2023-04-20T02:36:48.994Z,11.30
2023-04-20T02:37:00.932Z,11.40
2023-04-20T02:37:12.876Z,11.40
2023-04-20T02:37:24.801Z,11.40
2023-04-20T02:37:36.634Z,11.40
2023-04-20T02:37:48.566Z,11.40
2023-04-20T02:38:00.339Z,11.40
2023-04-20T02:38:12.224Z,11.40